Metar Cercanos

 

LEPA - Palma De Mallorc, Spain
Distance from station: ONO 38km
Actualización: 24/06/2018 15:00
Few Clouds
Few Clouds
 Viento del SO
Viento: SO 24 km/h
Temperatura: 27°C
Indice Calor: 29°C
Rocío: 21°C
Humedad: 70%
Barómetro: 1016 hPa
Clouds: Few Clouds
Visibility: 10 km
Cloud details: Few Clouds 610 m
2018/06/24 13:00 LEPA 241300Z 22013KT 200V260 9999 FEW020 27/21 Q1016 NOSIG
LEMH - Mahon/Menorca Is, Spain
Distance from station: ENE 105km
Actualización: 24/06/2018 15:00
Few Clouds
Few Clouds
 Viento del NE
Viento: NE 19 km/h
Temperatura: 26°C
Rocío: 18°C
Humedad: 61%
Barómetro: 1016 hPa
Clouds: Few Clouds
Visibility: 10 km
Cloud details: Few Clouds 914 m
2018/06/24 13:00 LEMH 241300Z 04010KT 360V080 9999 FEW030 26/18 Q1016
 
LEIB - Ibiza/Es Codola, Spain
Distance from station: OSO 165km
Actualización: 24/06/2018 15:00
Despejado
Despejado
 Viento del E
Viento: E 19 km/h
Temperatura: 27°C
Indice Calor: 29°C
Rocío: 20°C
Humedad: 66%
Barómetro: 1016 hPa
Resumen: Despejado
Visibility: greater than 10 km
2018/06/24 13:00 LEIB 241300Z 08010KT 050V110 CAVOK 27/20 Q1016 NOSIG
LEBL - Barcelona Airpor, Spain
Distance from station: NNO 225km
Actualización: 24/06/2018 15:00
Despejado
Despejado
 Viento del ESE
Viento: ESE 19 km/h
Temperatura: 25°C
Rocío: 12°C
Humedad: 44%
Barómetro: 1017 hPa
Resumen: Despejado
Visibility: greater than 10 km
2018/06/24 13:00 LEBL 241300Z 12010KT 100V170 CAVOK 25/12 Q1017 NOSIG
 
LEVC - Valencia (civ/Mi, Spain
Distance from station: NO 188km
Actualización: 24/06/2018 15:00
Few Clouds
Few Clouds
 Viento del ESE
Viento: ESE 17 km/h
Temperatura: 29°C
Indice Calor: 29°C
Rocío: 16°C
Humedad: 45%
Barómetro: 1016 hPa
Clouds: Few Clouds
Visibility: 10 km
Cloud details: Few Clouds 1219 m
2018/06/24 13:00 LEVC 241300Z 11009KT 080V140 9999 FEW040 29/16 Q1016 NOSIG
LEGE - Gerona/Costa Bra, Spain
Distance from station: N 276km
Actualización: 24/06/2018 15:00
Few Clouds
Few Clouds
 Viento del S
Viento: S 20 km/h
Temperatura: 28°C
Rocío: 10°C
Humedad: 32%
Barómetro: 1016 hPa
Clouds: Few Clouds
Visibility: 10 km
Cloud details: Few Clouds 1829 m
2018/06/24 13:00 LEGE 241300Z 19011KT 160V220 9999 FEW060 28/10 Q1016
 
LEAL - Alicante/El Alte, Spain
Distance from station: OSO 344km
Actualización: 24/06/2018 15:00
Despejado
Despejado
 Viento del E
Viento: E 19 km/h
Temperatura: 27°C
Indice Calor: 28°C
Rocío: 18°C
Humedad: 58%
Barómetro: 1016 hPa
Resumen: Despejado
Visibility: greater than 10 km
2018/06/24 13:00 LEAL 241300Z 10010KT 050V150 CAVOK 27/18 Q1016 NOSIG
LEAM - Almeria Airport, Spain
Distance from station: SSO 56km
Actualización: 24/06/2018 15:00
Despejado
Despejado
 Viento del ENE
Viento: ENE 37 km/h
Temperatura: 34°C
Rocío: 14°C
Humedad: 30%
Barómetro: 1013 hPa
Resumen: Despejado
Visibility: greater than 10 km
2018/06/24 13:00 LEAM 241300Z 07020KT CAVOK 34/14 Q1013
 
LEZG - Zaragoza (mil/Ci, Spain
Distance from station: NO 431km
Actualización: 24/06/2018 15:00
Despejado
Despejado
 Viento del E
Viento: E 6 km/h
Temperatura: 29°C
Indice Calor: 29°C
Rocío: 15°C
Humedad: 43%
Barómetro: 1016 hPa
Resumen: Despejado
Visibility: greater than 10 km
2018/06/24 13:00 LEZG 241300Z 08003KT CAVOK 29/15 Q1016
LEMD - Madrid/Barajas, Spain
Distance from station: ONO 234km
Actualización: 24/06/2018 15:00
Despejado
Despejado
 Viento del SSO
Viento: SSO 6 km/h
Temperatura: 35°C
Rocío: 13°C
Humedad: 26%
Barómetro: 1016 hPa
Resumen: Despejado
Visibility: greater than 10 km
2018/06/24 13:00 LEMD 241300Z 20003KT CAVOK 35/13 Q1016 NOSIG
 
LEGR - Granada Airport, Spain
Distance from station: OSO 62km
Actualización: 24/06/2018 15:00
Despejado
Despejado
 Viento del SSE
Viento: SSE 24 km/h
Temperatura: 38°C
Rocío: 8°C
Humedad: 16%
Barómetro: 1015 hPa
Resumen: Despejado
Visibility: greater than 10 km
2018/06/24 13:00 LEGR 241300Z 15013KT 110V200 CAVOK 38/08 Q1015
LEMG - Malaga (civ/Mil), Spain
Distance from station: OSO 227km
Actualización: 24/06/2018 15:00
Despejado
Despejado
 Viento del ESE
Viento: ESE 11 km/h
Temperatura: 29°C
Indice Calor: 29°C
Rocío: 15°C
Humedad: 43%
Barómetro: 1014 hPa
Resumen: Despejado
Visibility: greater than 10 km
2018/06/24 13:00 LEMG 241300Z 11006KT 040V170 CAVOK 29/15 Q1014 NOSIG
 
LEZL - Sevilla (civ/Mil, Spain
Distance from station: S 318km
Actualización: 24/06/2018 15:00
Despejado
Despejado
 Viento del SO
Viento: SO 9 km/h
Temperatura: 31°C
Rocío: 15°C
Humedad: 38%
Barómetro: 1013 hPa
Resumen: Despejado
Visibility: greater than 10 km
2018/06/24 13:00 LEZL 241300Z 22005KT 130V280 CAVOK 31/15 Q1013 NOSIG
LEVT - Vitoria, Spain
Distance from station: NO 226km
Actualización: 24/06/2018 15:00
Despejado
Despejado
 Viento del NE
Viento: NE 11 km/h
Temperatura: 28°C
Indice Calor: 27°C
Rocío: 13°C
Humedad: 40%
Barómetro: 1018 hPa
Resumen: Despejado
Visibility: greater than 10 km
2018/06/24 13:00 LEVT 241300Z 04006KT 010V090 CAVOK 28/13 Q1018
 
LEBB - Bilbao/Sondica, Spain
Distance from station: NNO 235km
Actualización: 24/06/2018 15:00
Despejado
Despejado
 Viento del NE
Viento: NE 9 km/h
Temperatura: 30°C
Indice Calor: 29°C
Rocío: 15°C
Humedad: 40%
Barómetro: 1017 hPa
Resumen: Despejado
Visibility: greater than 10 km
2018/06/24 13:00 LEBB 241300Z 05005KT 330V130 CAVOK 30/15 Q1017 NOSIG
LESO - San Sebastian/Fu, Spain
Distance from station: N 231km
Actualización: 24/06/2018 15:00
Despejado
Despejado
 Viento del N
Viento: N 11 km/h
Temperatura: 23°C
Rocío: 19°C
Humedad: 78%
Barómetro: 1018 hPa
Resumen: Despejado
Visibility: greater than 10 km
2018/06/24 13:00 LESO 241300Z 36006KT 320V050 CAVOK 23/19 Q1018
 
LEVD - Valladolid(Mil/C, Spain
Distance from station: ONO 239km
Actualización: 24/06/2018 15:00
Despejado
Despejado
 Viento del ESE
Viento: ESE 4 km/h
Temperatura: 30°C
Rocío: 11°C
Humedad: 31%
Barómetro: 1019 hPa
Resumen: Despejado
Visibility: greater than 10 km
2018/06/24 13:00 LEVD 241300Z 11002KT CAVOK 30/11 Q1019
LESA - Salamanca (civ/M, Spain
Distance from station: ONO 349km
Actualización: 24/06/2018 15:00
Despejado
Despejado
 Viento del ONO
Viento: ONO 7 km/h
Temperatura: 32°C
Rocío: 13°C
Humedad: 31%
Barómetro: 1018 hPa
Resumen: Despejado
Visibility: greater than 10 km
2018/06/24 13:00 LESA 241300Z 30004KT 230V030 CAVOK 32/13 Q1018
 
LEXJ - Santander/Paraya, Spain
Distance from station: NNO 247km
Actualización: 24/06/2018 15:00
Despejado
Despejado
 Viento del NE
Viento: NE 17 km/h
Temperatura: 24°C
Rocío: 17°C
Humedad: 65%
Barómetro: 1016 hPa
Resumen: Despejado
Visibility: greater than 10 km
2018/06/24 13:00 LEXJ 241300Z 04009KT 340V100 CAVOK 24/17 Q1016
LEAS - Asturias/Aviles, Spain
Distance from station: NO 214km
Actualización: 24/06/2018 15:00
Despejado
Despejado
 Viento del E
Viento: E 22 km/h
Temperatura: 25°C
Rocío: 16°C
Humedad: 57%
Barómetro: 1016 hPa
Resumen: Despejado
Visibility: greater than 10 km
2018/06/24 13:00 LEAS 241300Z 09012KT 050V120 CAVOK 25/16 Q1016 NOSIG
 
LECO - La Coruna/Alvedr, Spain
Distance from station: ONO 222km
Actualización: 24/06/2018 15:00
Despejado
Despejado
 Viento del NNE
Viento: NNE 13 km/h
Temperatura: 27°C
Indice Calor: 28°C
Rocío: 19°C
Humedad: 62%
Barómetro: 1014 hPa
Resumen: Despejado
Visibility: greater than 10 km
2018/06/24 13:00 LECO 241300Z 02007KT 330V060 CAVOK 27/19 Q1014 NOSIG
LEVX - Vigo/Peinador, Spain
Distance from station: O 214km
Actualización: 24/06/2018 15:00
Despejado
Despejado
 Viento del O
Viento: O 20 km/h
Temperatura: 25°C
Rocío: 19°C
Humedad: 69%
Barómetro: 1016 hPa
Resumen: Despejado
Visibility: greater than 10 km
2018/06/24 13:00 LEVX 241300Z 27011KT 240V300 CAVOK 25/19 Q1016 NOSIG